createdAt,value
2022-07-28T00:00:33.230Z,4.04
2022-07-28T00:02:09.556Z,4.04
2022-07-28T00:03:45.877Z,4.02
2022-07-28T00:05:21.224Z,4.02
2022-07-28T00:06:57.553Z,4.02
2022-07-28T00:08:33.882Z,4.02
2022-07-28T00:10:10.213Z,4.02
2022-07-28T00:11:46.553Z,4.02
2022-07-28T00:13:22.873Z,4.04
2022-07-28T00:14:59.229Z,4.02
2022-07-28T00:16:35.540Z,4.02
2022-07-28T00:18:11.880Z,4.02
2022-07-28T00:19:48.208Z,4.02
2022-07-28T00:21:24.539Z,4.04
2022-07-28T00:23:00.865Z,4.02
2022-07-28T00:24:37.192Z,4.04
2022-07-28T00:26:12.543Z,4.02
2022-07-28T00:27:48.875Z,4.02
2022-07-28T00:29:25.212Z,4.02
2022-07-28T00:31:01.544Z,4.02
2022-07-28T00:32:37.873Z,4.02
2022-07-28T00:34:14.215Z,4.02
2022-07-28T00:35:50.528Z,4.02
2022-07-28T00:37:26.866Z,4.02
2022-07-28T00:39:03.197Z,4.02
2022-07-28T00:40:39.526Z,4.02
2022-07-28T00:42:15.848Z,4.02
2022-07-28T00:43:52.199Z,4.02
2022-07-28T00:45:28.521Z,4.02
2022-07-28T00:47:03.866Z,4.02
2022-07-28T00:48:40.193Z,4.02
2022-07-28T00:50:16.531Z,4.02
2022-07-28T00:51:52.854Z,4.02
2022-07-28T00:53:29.187Z,4.02
2022-07-28T00:55:05.516Z,4.02
2022-07-28T00:56:41.849Z,4.02
2022-07-28T00:58:18.181Z,4.02
2022-07-28T00:59:54.508Z,4.02
2022-07-28T01:01:30.845Z,4.02
2022-07-28T01:03:07.178Z,4.02
2022-07-28T01:04:43.514Z,4.02
2022-07-28T01:06:19.843Z,4.02
2022-07-28T01:07:56.175Z,4.02
2022-07-28T01:09:31.526Z,4.02
2022-07-28T01:11:07.844Z,4.02
2022-07-28T01:12:44.178Z,4.02
2022-07-28T01:14:20.508Z,4.02
2022-07-28T01:15:56.840Z,4.02
2022-07-28T01:17:33.176Z,4.02
2022-07-28T01:19:09.505Z,4
2022-07-28T01:20:45.836Z,4.02
2022-07-28T01:22:22.163Z,4.02
2022-07-28T01:23:58.504Z,4.02
2022-07-28T01:25:34.831Z,4
2022-07-28T01:27:11.164Z,4.02
2022-07-28T01:28:47.494Z,4.02
2022-07-28T01:30:22.849Z,4.02
2022-07-28T01:31:58.194Z,4
2022-07-28T01:33:33.558Z,4
2022-07-28T01:35:08.903Z,4
2022-07-28T01:36:44.256Z,4
2022-07-28T01:38:20.592Z,4
2022-07-28T01:39:56.924Z,4
2022-07-28T01:41:33.253Z,4.02
2022-07-28T01:43:09.581Z,4.02
2022-07-28T01:44:45.913Z,4.02
2022-07-28T01:46:22.245Z,4.02
2022-07-28T01:47:58.582Z,4
2022-07-28T01:49:34.911Z,4.02
2022-07-28T01:51:11.232Z,4.02
2022-07-28T01:52:47.572Z,4
2022-07-28T01:54:23.906Z,4
2022-07-28T01:56:00.229Z,4
2022-07-28T01:57:35.581Z,4.02
2022-07-28T01:59:11.904Z,4
2022-07-28T02:00:48.258Z,4.02
2022-07-28T02:02:24.566Z,4
2022-07-28T02:04:00.909Z,4
2022-07-28T02:05:37.231Z,4
2022-07-28T02:07:12.594Z,4
2022-07-28T02:08:47.938Z,4
2022-07-28T02:10:24.287Z,4.02
2022-07-28T02:12:00.610Z,4
2022-07-28T02:13:35.964Z,4
2022-07-28T02:15:11.306Z,4
2022-07-28T02:16:47.634Z,4.02
2022-07-28T02:18:23.971Z,4
2022-07-28T02:20:00.300Z,4
2022-07-28T02:21:36.630Z,4
2022-07-28T02:23:12.957Z,4.02
2022-07-28T02:24:49.287Z,4
2022-07-28T02:26:25.627Z,4
2022-07-28T02:28:01.950Z,4
2022-07-28T02:29:38.283Z,4
2022-07-28T02:31:14.619Z,4
2022-07-28T02:32:50.954Z,4
2022-07-28T02:34:27.270Z,4
2022-07-28T02:36:02.628Z,4
2022-07-28T02:37:38.960Z,4
2022-07-28T02:39:15.281Z,4
2022-07-28T02:40:51.619Z,4
2022-07-28T02:42:27.960Z,4.02
2022-07-28T02:44:04.286Z,4
2022-07-28T02:45:40.607Z,4.02
2022-07-28T02:47:16.940Z,4
2022-07-28T02:48:53.280Z,4
2022-07-28T02:50:28.637Z,4
2022-07-28T02:52:04.007Z,4
2022-07-28T02:53:40.314Z,4
2022-07-28T02:55:15.660Z,4
2022-07-28T02:56:51.023Z,4
2022-07-28T02:58:27.352Z,4
2022-07-28T03:00:03.686Z,4
2022-07-28T03:01:40.010Z,4
2022-07-28T03:03:16.336Z,4
2022-07-28T03:04:52.673Z,3.98
2022-07-28T03:06:29.005Z,3.98
2022-07-28T03:08:05.334Z,3.98
2022-07-28T03:09:41.674Z,3.98
2022-07-28T03:11:18.002Z,3.98
2022-07-28T03:12:54.330Z,3.98
2022-07-28T03:14:30.673Z,4
2022-07-28T03:16:06.990Z,3.98
2022-07-28T03:17:42.336Z,4
2022-07-28T03:19:18.672Z,3.98
2022-07-28T03:20:55.005Z,4
2022-07-28T03:22:31.327Z,3.98
2022-07-28T03:24:07.658Z,3.98
2022-07-28T03:25:43.989Z,3.98
2022-07-28T03:27:20.338Z,3.98
2022-07-28T03:28:56.653Z,4
2022-07-28T03:30:32.024Z,3.98
2022-07-28T03:32:08.343Z,3.98
2022-07-28T03:33:43.704Z,4
2022-07-28T03:35:19.048Z,4
2022-07-28T03:36:55.385Z,3.98
2022-07-28T03:38:31.715Z,4
2022-07-28T03:40:08.040Z,3.98
2022-07-28T03:41:44.372Z,3.98
2022-07-28T03:43:20.707Z,3.98
2022-07-28T03:44:57.039Z,3.98
2022-07-28T03:46:33.382Z,3.98
2022-07-28T03:48:09.695Z,3.98
2022-07-28T03:49:46.024Z,3.98
2022-07-28T03:51:22.367Z,3.98
2022-07-28T03:52:58.695Z,3.98
2022-07-28T03:54:35.051Z,4
2022-07-28T03:56:10.372Z,3.98
2022-07-28T03:57:46.701Z,3.98
2022-07-28T03:59:23.042Z,3.98
2022-07-28T04:00:59.365Z,3.98
2022-07-28T04:02:35.703Z,4
2022-07-28T04:04:12.020Z,4
2022-07-28T04:05:48.349Z,3.98
2022-07-28T04:07:23.713Z,3.98
2022-07-28T04:08:59.071Z,3.98
2022-07-28T04:10:35.394Z,3.98
2022-07-28T04:12:10.748Z,3.98
2022-07-28T04:13:46.091Z,3.98
2022-07-28T04:15:22.425Z,3.98
2022-07-28T04:16:58.765Z,3.98
2022-07-28T04:18:35.100Z,3.98
2022-07-28T04:20:11.425Z,3.98
2022-07-28T04:21:47.746Z,4
2022-07-28T04:23:24.082Z,4
2022-07-28T04:25:00.415Z,3.98
2022-07-28T04:26:36.741Z,4
2022-07-28T04:28:13.077Z,3.98
2022-07-28T04:29:49.400Z,3.98
2022-07-28T04:31:25.735Z,3.98
2022-07-28T04:33:02.103Z,3.98
2022-07-28T04:34:37.425Z,3.98
2022-07-28T04:36:13.756Z,3.98
2022-07-28T04:37:50.078Z,3.98
2022-07-28T04:39:26.404Z,3.98
2022-07-28T04:41:02.739Z,3.98
2022-07-28T04:42:39.077Z,4
2022-07-28T04:44:15.398Z,3.98
2022-07-28T04:45:51.741Z,4
2022-07-28T04:47:28.063Z,4
2022-07-28T04:49:04.399Z,4
2022-07-28T04:50:40.735Z,3.98
2022-07-28T04:52:17.058Z,4
2022-07-28T04:53:53.389Z,4
2022-07-28T04:55:28.736Z,4
2022-07-28T04:57:05.069Z,3.98
2022-07-28T04:58:41.394Z,4
2022-07-28T05:00:17.749Z,4
2022-07-28T05:01:54.071Z,3.98
2022-07-28T05:03:30.389Z,4
2022-07-28T05:05:06.724Z,4
2022-07-28T05:06:43.049Z,4
2022-07-28T05:08:19.392Z,3.98
2022-07-28T05:09:55.719Z,4
2022-07-28T05:11:32.053Z,4
2022-07-28T05:13:08.372Z,4
2022-07-28T05:14:44.705Z,3.98
2022-07-28T05:16:20.066Z,4
2022-07-28T05:17:56.383Z,4
2022-07-28T05:19:32.716Z,4
2022-07-28T05:21:09.048Z,4
2022-07-28T05:22:45.376Z,4
2022-07-28T05:24:21.715Z,4
2022-07-28T05:25:58.048Z,4.02
2022-07-28T05:27:34.379Z,4.02
2022-07-28T05:29:10.700Z,4.02
2022-07-28T05:30:46.070Z,4.02
2022-07-28T05:32:21.416Z,4
2022-07-28T05:33:56.772Z,4
2022-07-28T05:35:32.133Z,4
2022-07-28T05:37:08.442Z,4
2022-07-28T05:38:44.792Z,4
2022-07-28T05:40:21.113Z,4
2022-07-28T05:41:57.439Z,4
2022-07-28T05:43:33.769Z,4
2022-07-28T05:45:10.108Z,4.02
2022-07-28T05:46:46.445Z,4.02
2022-07-28T05:48:22.766Z,4.02
2022-07-28T05:49:59.093Z,4.02
2022-07-28T05:51:35.426Z,4.02
2022-07-28T05:53:11.754Z,4.02
2022-07-28T05:54:48.095Z,4.02
2022-07-28T05:56:23.434Z,4.02
2022-07-28T05:57:59.798Z,4.04
2022-07-28T05:59:36.109Z,4.04
2022-07-28T06:01:12.426Z,4.04
2022-07-28T06:02:48.765Z,4.06
2022-07-28T06:04:25.096Z,4.06
2022-07-28T06:06:01.432Z,4.06
2022-07-28T06:07:37.757Z,4.06
2022-07-28T06:09:14.087Z,4.06
2022-07-28T06:10:50.425Z,4.06
2022-07-28T06:12:26.771Z,4.06
2022-07-28T06:14:03.087Z,4.06
2022-07-28T06:15:39.417Z,4.06
2022-07-28T06:17:14.770Z,4.06
2022-07-28T06:18:51.087Z,4.06
2022-07-28T06:20:27.416Z,4.06
2022-07-28T06:22:03.759Z,4.06
2022-07-28T06:23:40.102Z,4.06
2022-07-28T06:25:16.423Z,4.06
2022-07-28T06:26:52.737Z,4.06
2022-07-28T06:28:29.071Z,4.06
2022-07-28T06:30:05.402Z,4.06
2022-07-28T06:31:41.733Z,4.06
2022-07-28T06:33:18.071Z,4.06
2022-07-28T06:34:54.393Z,4.06
2022-07-28T06:36:30.729Z,4.06
2022-07-28T06:38:07.063Z,4.06
2022-07-28T06:39:42.410Z,4.06
2022-07-28T06:41:18.730Z,4.06
2022-07-28T06:42:55.063Z,4.06
2022-07-28T06:44:31.399Z,4.06
2022-07-28T06:46:07.744Z,4.06
2022-07-28T06:47:44.054Z,4.06
2022-07-28T06:49:20.381Z,4.06
2022-07-28T06:50:56.721Z,4.06
2022-07-28T06:52:33.047Z,4.06
2022-07-28T06:54:09.426Z,4.06
2022-07-28T06:55:45.712Z,4.08
2022-07-28T06:57:22.039Z,4.06
2022-07-28T06:58:57.400Z,4.08
2022-07-28T07:00:33.728Z,4.08
2022-07-28T07:02:10.068Z,4.08
2022-07-28T07:03:46.390Z,4.08
2022-07-28T07:05:22.720Z,4.08
2022-07-28T07:06:59.050Z,4.08
2022-07-28T07:08:35.374Z,4.08
2022-07-28T07:10:11.705Z,4.08
2022-07-28T07:11:48.039Z,4.08
2022-07-28T07:13:24.387Z,4.08
2022-07-28T07:15:00.709Z,4.08
2022-07-28T07:16:37.029Z,4.08
2022-07-28T07:18:13.361Z,4.08
2022-07-28T07:19:48.710Z,4.08
2022-07-28T07:21:25.040Z,4.08
2022-07-28T07:23:01.388Z,4.08
2022-07-28T07:24:37.710Z,4.08
2022-07-28T07:26:14.029Z,4.08
2022-07-28T07:27:50.365Z,4.08
2022-07-28T07:29:26.694Z,4.08
2022-07-28T07:31:03.026Z,4.08
2022-07-28T07:32:39.361Z,4.08
2022-07-28T07:34:15.695Z,4.08
2022-07-28T07:35:52.020Z,4.08
2022-07-28T07:37:28.348Z,4.08
2022-07-28T07:39:04.677Z,4.08
2022-07-28T07:40:40.030Z,4.08
2022-07-28T07:42:16.365Z,4.08
2022-07-28T07:43:52.682Z,4.08
2022-07-28T07:45:29.022Z,4.08
2022-07-28T07:47:05.348Z,4.08
2022-07-28T07:48:41.686Z,4.08
2022-07-28T07:50:18.019Z,4.08
2022-07-28T07:51:54.342Z,4.08
2022-07-28T07:53:30.680Z,4.08
2022-07-28T07:55:06.998Z,4.08
2022-07-28T07:56:43.344Z,4.08
2022-07-28T07:58:19.659Z,4.08
2022-07-28T07:59:56.002Z,4.08
2022-07-28T08:01:31.351Z,4.08
2022-07-28T08:03:07.670Z,4.08
2022-07-28T08:04:44.008Z,4.08
2022-07-28T08:06:20.335Z,4.08
2022-07-28T08:07:56.658Z,4.08
2022-07-28T08:09:33.004Z,4.08
2022-07-28T08:11:09.319Z,4.1
2022-07-28T08:12:45.650Z,4.1
2022-07-28T08:14:21.987Z,4.1
2022-07-28T08:15:58.316Z,4.1
2022-07-28T08:17:34.645Z,4.1
2022-07-28T08:19:10.985Z,4.1
2022-07-28T08:20:47.303Z,4.1
2022-07-28T08:22:22.666Z,4.1
2022-07-28T08:23:58.988Z,4.1
2022-07-28T08:25:35.319Z,4.1
2022-07-28T08:27:11.663Z,4.1
2022-07-28T08:28:47.982Z,4.1
2022-07-28T08:30:24.317Z,4.1
2022-07-28T08:32:00.653Z,4.1
2022-07-28T08:33:36.984Z,4.1
2022-07-28T08:35:13.310Z,4.1
2022-07-28T08:36:49.636Z,4.1
2022-07-28T08:38:25.962Z,4.1
2022-07-28T08:40:02.292Z,4.1
2022-07-28T08:41:38.637Z,4.1
2022-07-28T08:43:13.973Z,4.1
2022-07-28T08:44:50.304Z,4.1
2022-07-28T08:46:26.648Z,4.1
2022-07-28T08:48:02.966Z,4.1
2022-07-28T08:49:39.299Z,4.1
2022-07-28T08:51:15.643Z,4.1
2022-07-28T08:52:51.958Z,4.1
2022-07-28T08:54:28.294Z,4.1
2022-07-28T08:56:04.649Z,4.1
2022-07-28T08:57:40.962Z,4.1
2022-07-28T08:59:17.299Z,4.1
2022-07-28T09:00:53.615Z,4.1
2022-07-28T09:02:29.947Z,4.1
2022-07-28T09:04:06.276Z,4.1
2022-07-28T09:05:41.617Z,4.1
2022-07-28T09:07:17.955Z,4.1
2022-07-28T09:08:54.288Z,4.1
2022-07-28T09:10:30.627Z,4.1
2022-07-28T09:12:06.953Z,4.1
2022-07-28T09:13:43.276Z,4.1
2022-07-28T09:15:19.607Z,4.1
2022-07-28T09:16:55.943Z,4.1
2022-07-28T09:18:32.272Z,4.1
2022-07-28T09:20:08.597Z,4.1
2022-07-28T09:21:44.928Z,4.1
2022-07-28T09:23:21.260Z,4.1
2022-07-28T09:24:57.593Z,4.1
2022-07-28T09:26:32.941Z,4.1
2022-07-28T09:28:09.275Z,4.1
2022-07-28T09:29:45.603Z,4.1
2022-07-28T09:31:21.942Z,4.1
2022-07-28T09:32:58.267Z,4.1
2022-07-28T09:34:34.598Z,4.1
2022-07-28T09:36:10.917Z,4.1
2022-07-28T09:37:47.256Z,4.1
2022-07-28T09:39:23.595Z,4.1
2022-07-28T09:40:59.912Z,4.1
2022-07-28T09:42:36.250Z,4.1
2022-07-28T09:44:12.573Z,4.1
2022-07-28T09:45:48.922Z,4.1
2022-07-28T09:47:24.268Z,4.1
2022-07-28T09:49:00.584Z,4.1
2022-07-28T09:50:36.919Z,4.1
2022-07-28T09:52:13.247Z,4.1
2022-07-28T09:53:49.577Z,4.1
2022-07-28T09:55:25.918Z,4.1
2022-07-28T09:57:02.238Z,4.1
2022-07-28T09:58:38.575Z,4.1
2022-07-28T10:00:14.901Z,4.12
2022-07-28T10:01:51.232Z,4.12
2022-07-28T10:03:27.562Z,4.12
2022-07-28T10:05:03.896Z,4.12
2022-07-28T10:06:40.225Z,4.12
2022-07-28T10:08:15.560Z,4.1
2022-07-28T10:09:51.903Z,4.12
2022-07-28T10:11:28.226Z,4.12
2022-07-28T10:13:04.556Z,4.12
2022-07-28T10:14:40.889Z,4.12
2022-07-28T10:16:17.232Z,4.12
2022-07-28T10:17:53.550Z,4.12
2022-07-28T10:19:29.887Z,4.12
2022-07-28T10:21:06.217Z,4.12
2022-07-28T10:22:42.543Z,4.12
2022-07-28T10:24:18.877Z,4.12
2022-07-28T10:25:55.216Z,4.12
2022-07-28T10:27:31.540Z,4.12
2022-07-28T10:29:06.883Z,4.12
2022-07-28T10:30:43.216Z,4.12
2022-07-28T10:32:19.541Z,4.12
2022-07-28T10:33:55.871Z,4.12
2022-07-28T10:35:32.209Z,4.12
2022-07-28T10:37:08.538Z,4.12
2022-07-28T10:38:44.869Z,4.12
2022-07-28T10:40:21.193Z,4.12
2022-07-28T10:41:57.532Z,4.12
2022-07-28T10:43:33.898Z,4.12
2022-07-28T10:45:10.193Z,4.12
2022-07-28T10:46:46.522Z,4.12
2022-07-28T10:48:22.853Z,4.12
2022-07-28T10:49:58.204Z,4.12
2022-07-28T10:51:34.535Z,4.12
2022-07-28T10:53:10.854Z,4.12
2022-07-28T10:54:47.191Z,4.12
2022-07-28T10:56:23.539Z,4.12
2022-07-28T10:57:59.854Z,4.16
2022-07-28T10:59:36.179Z,4.16
2022-07-28T11:01:12.514Z,4.16
2022-07-28T11:02:48.841Z,4.16
2022-07-28T11:04:25.167Z,4.16
2022-07-28T11:06:01.511Z,4.16
2022-07-28T11:07:37.832Z,4.17
2022-07-28T11:09:14.170Z,4.17
2022-07-28T11:10:49.513Z,4.16
2022-07-28T11:12:25.849Z,4.17
2022-07-28T11:14:02.173Z,4.17
2022-07-28T11:15:38.513Z,4.17
2022-07-28T11:17:14.838Z,4.17
2022-07-28T11:18:51.176Z,4.17
2022-07-28T11:20:27.497Z,4.17
2022-07-28T11:22:03.827Z,4.17
2022-07-28T11:23:40.157Z,4.17
2022-07-28T11:25:16.493Z,4.17
2022-07-28T11:26:52.825Z,4.17
2022-07-28T11:28:29.155Z,4.17
2022-07-28T11:30:05.484Z,4.17
2022-07-28T11:31:40.828Z,4.17
2022-07-28T11:33:17.165Z,4.17
2022-07-28T11:34:53.493Z,4.17
2022-07-28T11:36:29.830Z,4.17
2022-07-28T11:38:06.154Z,4.17
2022-07-28T11:39:42.498Z,4.17
2022-07-28T11:41:18.831Z,4.17
2022-07-28T11:42:55.152Z,4.17
2022-07-28T11:44:31.472Z,4.17
2022-07-28T11:46:07.807Z,4.17
2022-07-28T11:47:44.151Z,4.17
2022-07-28T11:49:20.466Z,4.17
2022-07-28T11:50:56.818Z,4.17
2022-07-28T11:52:32.147Z,4.17
2022-07-28T11:54:08.472Z,4.17
2022-07-28T11:55:44.807Z,4.17
2022-07-28T11:57:21.133Z,4.17
2022-07-28T11:58:57.463Z,4.17
2022-07-28T12:00:33.790Z,4.17
2022-07-28T12:02:10.133Z,4.17
2022-07-28T12:03:46.470Z,4.17
2022-07-28T12:05:22.794Z,4.17
2022-07-28T12:06:59.122Z,4.17
2022-07-28T12:08:35.461Z,4.17
2022-07-28T12:10:11.780Z,4.17
2022-07-28T12:11:48.119Z,4.17
2022-07-28T12:13:23.457Z,4.17
2022-07-28T12:14:59.791Z,4.17
2022-07-28T12:16:36.120Z,4.17
2022-07-28T12:18:12.445Z,4.17
2022-07-28T12:19:48.841Z,4.17
2022-07-28T12:21:24.171Z,4.17
2022-07-28T12:23:00.509Z,4.17
2022-07-28T12:24:36.804Z,4.17
2022-07-28T12:26:13.316Z,4.17
2022-07-28T12:27:48.516Z,4.17
2022-07-28T12:29:23.852Z,4.17
2022-07-28T12:31:00.155Z,4.17
2022-07-28T12:32:36.488Z,4.17
2022-07-28T12:34:12.817Z,4.17
2022-07-28T12:35:49.146Z,4.17
2022-07-28T12:37:25.482Z,4.17
2022-07-28T12:39:01.810Z,4.17
2022-07-28T12:40:38.146Z,4.17
2022-07-28T12:42:14.472Z,4.17
2022-07-28T12:43:50.803Z,4.17
2022-07-28T12:45:27.139Z,4.17
2022-07-28T12:47:03.472Z,4.17
2022-07-28T12:48:39.800Z,4.17
2022-07-28T12:50:15.150Z,4.17
2022-07-28T12:51:51.482Z,4.17
2022-07-28T12:53:27.810Z,4.17
2022-07-28T12:55:04.149Z,4.17
2022-07-28T12:56:40.466Z,4.17
2022-07-28T12:58:16.802Z,4.17
2022-07-28T12:59:52.154Z,4.17
2022-07-28T13:01:28.493Z,4.17
2022-07-28T13:03:04.820Z,4.17
2022-07-28T13:04:40.167Z,4.16
2022-07-28T13:06:16.494Z,4.16
2022-07-28T13:07:52.821Z,4.16
2022-07-28T13:09:29.159Z,4.16
2022-07-28T13:11:05.499Z,4.16
2022-07-28T13:12:41.818Z,4.16
2022-07-28T13:14:18.151Z,4.16
2022-07-28T13:15:54.484Z,4.16
2022-07-28T13:17:30.817Z,4.16
2022-07-28T13:19:07.140Z,4.16
2022-07-28T13:20:43.467Z,4.14
2022-07-28T13:22:19.800Z,4.16
2022-07-28T13:23:56.140Z,4.14
2022-07-28T13:25:31.487Z,4.14
2022-07-28T13:27:07.820Z,4.14
2022-07-28T13:28:44.148Z,4.14
2022-07-28T13:30:20.496Z,4.14
2022-07-28T13:31:56.804Z,4.14
2022-07-28T13:33:33.156Z,4.14
2022-07-28T13:35:09.467Z,4.14
2022-07-28T13:36:45.821Z,4.14
2022-07-28T13:38:22.133Z,4.14
2022-07-28T13:39:58.456Z,4.14
2022-07-28T13:41:34.780Z,4.14
2022-07-28T13:43:11.128Z,4.14
2022-07-28T13:44:47.449Z,4.14
2022-07-28T13:46:22.796Z,4.14
2022-07-28T13:47:59.126Z,4.14
2022-07-28T13:49:35.469Z,4.14
2022-07-28T13:51:11.785Z,4.14
2022-07-28T13:52:48.121Z,4.14
2022-07-28T13:54:24.449Z,4.14
2022-07-28T13:56:00.789Z,4.14
2022-07-28T13:57:37.116Z,4.14
2022-07-28T13:59:13.441Z,4.14
2022-07-28T14:00:49.778Z,4.14
2022-07-28T14:02:26.106Z,4.14
2022-07-28T14:04:02.434Z,4.14
2022-07-28T14:05:38.764Z,4.14
2022-07-28T14:07:14.115Z,4.14
2022-07-28T14:08:50.442Z,4.14
2022-07-28T14:10:26.775Z,4.14
2022-07-28T14:12:03.107Z,4.14
2022-07-28T14:13:39.435Z,4.14
2022-07-28T14:15:15.771Z,4.14
2022-07-28T14:16:52.101Z,4.14
2022-07-28T14:18:28.419Z,4.14
2022-07-28T14:20:04.771Z,4.14
2022-07-28T14:21:41.094Z,4.14
2022-07-28T14:23:17.418Z,4.14
2022-07-28T14:24:53.748Z,4.14
2022-07-28T14:26:30.080Z,4.14
2022-07-28T14:28:05.431Z,4.14
2022-07-28T14:29:41.762Z,4.14
2022-07-28T14:31:18.085Z,4.14
2022-07-28T14:32:54.430Z,4.14
2022-07-28T14:34:30.756Z,4.14
2022-07-28T14:36:07.086Z,4.14
2022-07-28T14:37:43.410Z,4.14
2022-07-28T14:39:19.746Z,4.14
2022-07-28T14:40:56.080Z,4.14
2022-07-28T14:42:32.408Z,4.14
2022-07-28T14:44:08.742Z,4.14
2022-07-28T14:45:45.080Z,4.14
2022-07-28T14:47:21.399Z,4.14
2022-07-28T14:48:56.742Z,4.14
2022-07-28T14:50:33.069Z,4.14
2022-07-28T14:52:09.407Z,4.14
2022-07-28T14:53:45.737Z,4.12
2022-07-28T14:55:22.067Z,4.14
2022-07-28T14:56:58.396Z,4.14
2022-07-28T14:58:34.725Z,4.14
2022-07-28T15:00:11.057Z,4.14
2022-07-28T15:01:47.389Z,4.14
2022-07-28T15:03:23.723Z,4.14
2022-07-28T15:05:00.089Z,4.12
2022-07-28T15:06:36.405Z,4.14
2022-07-28T15:08:12.707Z,4.12
2022-07-28T15:09:49.045Z,4.14
2022-07-28T15:11:25.374Z,4.14
2022-07-28T15:13:00.725Z,4.12
2022-07-28T15:14:37.061Z,4.12
2022-07-28T15:16:13.400Z,4.14
2022-07-28T15:17:49.712Z,4.14
2022-07-28T15:19:26.047Z,4.14
2022-07-28T15:21:02.376Z,4.12
2022-07-28T15:22:38.706Z,4.12
2022-07-28T15:24:15.039Z,4.12
2022-07-28T15:25:51.364Z,4.12
2022-07-28T15:27:27.690Z,4.12
2022-07-28T15:29:04.038Z,4.12
2022-07-28T15:30:40.363Z,4.12
2022-07-28T15:32:16.690Z,4.12
2022-07-28T15:33:52.043Z,4.12
2022-07-28T15:35:28.388Z,4.12
2022-07-28T15:37:04.695Z,4.14
2022-07-28T15:38:41.031Z,4.12
2022-07-28T15:40:17.357Z,4.12
2022-07-28T15:41:53.698Z,4.12
2022-07-28T15:43:30.027Z,4.12
2022-07-28T15:45:06.356Z,4.12
2022-07-28T15:46:42.704Z,4.12
2022-07-28T15:48:19.017Z,4.12
2022-07-28T15:49:55.361Z,4.12
2022-07-28T15:51:31.698Z,4.12
2022-07-28T15:53:08.017Z,4.12
2022-07-28T15:54:43.393Z,4.12
2022-07-28T15:56:19.683Z,4.12
2022-07-28T15:57:56.023Z,4.12
2022-07-28T15:59:32.355Z,4.12
2022-07-28T16:01:08.686Z,4.12
2022-07-28T16:02:45.009Z,4.12
2022-07-28T16:04:21.358Z,4.12
2022-07-28T16:05:57.677Z,4.12
2022-07-28T16:07:34.005Z,4.12
2022-07-28T16:09:10.338Z,4.12
2022-07-28T16:10:46.668Z,4.12
2022-07-28T16:12:22.999Z,4.12
2022-07-28T16:13:59.333Z,4.12
2022-07-28T16:15:34.670Z,4.12
2022-07-28T16:17:11.001Z,4.12
2022-07-28T16:18:47.345Z,4.12
2022-07-28T16:20:23.664Z,4.12
2022-07-28T16:22:00.001Z,4.12
2022-07-28T16:23:36.327Z,4.12
2022-07-28T16:25:12.668Z,4.12
2022-07-28T16:26:48.995Z,4.12
2022-07-28T16:28:25.319Z,4.12
2022-07-28T16:30:01.651Z,4.12
2022-07-28T16:31:38.014Z,4.12
2022-07-28T16:33:14.320Z,4.12
2022-07-28T16:34:50.654Z,4.12
2022-07-28T16:36:25.999Z,4.12
2022-07-28T16:38:02.329Z,4.12
2022-07-28T16:39:38.660Z,4.12
2022-07-28T16:41:14.980Z,4.12
2022-07-28T16:42:51.313Z,4.12
2022-07-28T16:44:27.651Z,4.12
2022-07-28T16:46:03.985Z,4.12
2022-07-28T16:47:40.316Z,4.12
2022-07-28T16:49:16.647Z,4.12
2022-07-28T16:50:52.982Z,4.12
2022-07-28T16:52:29.304Z,4.12
2022-07-28T16:54:05.630Z,4.12
2022-07-28T16:55:41.973Z,4.12
2022-07-28T16:57:17.313Z,4.12
2022-07-28T16:58:53.638Z,4.12
2022-07-28T17:00:29.970Z,4.12
2022-07-28T17:02:06.299Z,4.12
2022-07-28T17:03:42.631Z,4.12
2022-07-28T17:05:18.968Z,4.12
2022-07-28T17:06:55.298Z,4.12
2022-07-28T17:08:31.631Z,4.12
2022-07-28T17:10:07.965Z,4.12
2022-07-28T17:11:44.293Z,4.1
2022-07-28T17:13:20.621Z,4.12
2022-07-28T17:14:56.947Z,4.12
2022-07-28T17:16:33.283Z,4.12
2022-07-28T17:18:08.633Z,4.1
2022-07-28T17:19:44.959Z,4.1
2022-07-28T17:21:21.281Z,4.1
2022-07-28T17:22:57.618Z,4.12
2022-07-28T17:24:33.951Z,4.12
2022-07-28T17:26:10.286Z,4.1
2022-07-28T17:27:46.613Z,4.12
2022-07-28T17:29:22.941Z,4.1
2022-07-28T17:30:59.286Z,4.1
2022-07-28T17:32:35.607Z,4.1
2022-07-28T17:34:11.937Z,4.1
2022-07-28T17:35:48.266Z,4.1
2022-07-28T17:37:24.593Z,4.1
2022-07-28T17:38:59.942Z,4.1
2022-07-28T17:40:36.314Z,4.1
2022-07-28T17:42:12.614Z,4.1
2022-07-28T17:43:47.975Z,4.1
2022-07-28T17:45:24.290Z,4.1
2022-07-28T17:46:59.644Z,4.1
2022-07-28T17:48:34.995Z,4.1
2022-07-28T17:50:11.336Z,4.08
2022-07-28T17:51:47.677Z,4.1
2022-07-28T17:53:23.991Z,4.1
2022-07-28T17:54:59.357Z,4.1
2022-07-28T17:56:34.726Z,4.1
2022-07-28T17:58:11.021Z,4.1
2022-07-28T17:59:47.361Z,4.08
2022-07-28T18:01:23.689Z,4.1
2022-07-28T18:03:00.018Z,4.1
2022-07-28T18:04:36.350Z,4.1
2022-07-28T18:06:12.678Z,4.1
2022-07-28T18:07:49.016Z,4.1
2022-07-28T18:09:25.340Z,4.1
2022-07-28T18:11:01.677Z,4.08
2022-07-28T18:12:37.998Z,4.08
2022-07-28T18:14:14.325Z,4.1
2022-07-28T18:15:50.677Z,4.1
2022-07-28T18:17:26.007Z,4.08
2022-07-28T18:19:02.347Z,4.08
2022-07-28T18:20:38.672Z,4.1
2022-07-28T18:22:15.011Z,4.1
2022-07-28T18:23:51.335Z,4.08
2022-07-28T18:25:27.657Z,4.08
2022-07-28T18:27:04.006Z,4.1
2022-07-28T18:28:40.327Z,4.08
2022-07-28T18:30:16.654Z,4.1
2022-07-28T18:31:52.993Z,4.08
2022-07-28T18:33:29.315Z,4.08
2022-07-28T18:35:05.641Z,4.08
2022-07-28T18:36:41.978Z,4.08
2022-07-28T18:38:17.320Z,4.08
2022-07-28T18:39:53.662Z,4.08
2022-07-28T18:41:29.986Z,4.08
2022-07-28T18:43:06.314Z,4.08
2022-07-28T18:44:42.649Z,4.08
2022-07-28T18:46:18.975Z,4.08
2022-07-28T18:47:55.306Z,4.08
2022-07-28T18:49:31.635Z,4.08
2022-07-28T18:51:07.988Z,4.08
2022-07-28T18:52:44.302Z,4.08
2022-07-28T18:54:20.631Z,4.08
2022-07-28T18:55:56.961Z,4.08
2022-07-28T18:57:33.300Z,4.08
2022-07-28T18:59:08.644Z,4.06
2022-07-28T19:00:44.972Z,4.08
2022-07-28T19:02:21.293Z,4.08
2022-07-28T19:03:57.634Z,4.06
2022-07-28T19:05:33.963Z,4.08
2022-07-28T19:07:10.293Z,4.08
2022-07-28T19:08:46.618Z,4.08
2022-07-28T19:10:22.960Z,4.08
2022-07-28T19:11:59.287Z,4.08
2022-07-28T19:13:35.627Z,4.06
2022-07-28T19:15:11.945Z,4.08
2022-07-28T19:16:48.276Z,4.08
2022-07-28T19:18:24.611Z,4.08
2022-07-28T19:20:00.954Z,4.08
2022-07-28T19:21:37.274Z,4.08
2022-07-28T19:23:12.626Z,4.08
2022-07-28T19:24:48.941Z,4.08
2022-07-28T19:26:25.278Z,4.08
2022-07-28T19:28:01.612Z,4.08
2022-07-28T19:29:37.937Z,4.06
2022-07-28T19:31:14.265Z,4.08
2022-07-28T19:32:50.607Z,4.06
2022-07-28T19:34:26.931Z,4.06
2022-07-28T19:36:03.262Z,4.06
2022-07-28T19:37:39.590Z,4.06
2022-07-28T19:39:15.917Z,4.06
2022-07-28T19:40:52.246Z,4.06
2022-07-28T19:42:28.586Z,4.06
2022-07-28T19:44:03.926Z,4.06
2022-07-28T19:45:40.260Z,4.06
2022-07-28T19:47:16.587Z,4.06
2022-07-28T19:48:52.924Z,4.06
2022-07-28T19:50:29.252Z,4.06
2022-07-28T19:52:05.589Z,4.06
2022-07-28T19:53:41.908Z,4.06
2022-07-28T19:55:18.247Z,4.06
2022-07-28T19:56:54.579Z,4.06
2022-07-28T19:58:30.901Z,4.06
2022-07-28T20:00:07.234Z,4.06
2022-07-28T20:01:43.564Z,4.06
2022-07-28T20:03:19.895Z,4.06
2022-07-28T20:04:55.261Z,4.06
2022-07-28T20:06:31.580Z,4.06
2022-07-28T20:08:07.910Z,4.06
2022-07-28T20:09:44.242Z,4.06
2022-07-28T20:11:20.564Z,4.06
2022-07-28T20:12:56.906Z,4.06
2022-07-28T20:14:33.241Z,4.06
2022-07-28T20:16:09.558Z,4.06
2022-07-28T20:17:45.901Z,4.06
2022-07-28T20:19:22.219Z,4.06
2022-07-28T20:20:58.561Z,4.06
2022-07-28T20:22:34.885Z,4.06
2022-07-28T20:24:11.217Z,4.06
2022-07-28T20:25:46.566Z,4.06
2022-07-28T20:27:22.891Z,4.06
2022-07-28T20:28:59.227Z,4.06
2022-07-28T20:30:35.559Z,4.06
2022-07-28T20:32:11.880Z,4.06
2022-07-28T20:33:48.214Z,4.06
2022-07-28T20:35:24.549Z,4.06
2022-07-28T20:37:00.885Z,4.06
2022-07-28T20:38:37.207Z,4.06
2022-07-28T20:40:13.550Z,4.06
2022-07-28T20:41:49.867Z,4.06
2022-07-28T20:43:26.205Z,4.06
2022-07-28T20:45:02.532Z,4.06
2022-07-28T20:46:38.869Z,4.06
2022-07-28T20:48:14.211Z,4.06
2022-07-28T20:49:50.538Z,4.06
2022-07-28T20:51:26.877Z,4.06
2022-07-28T20:53:03.197Z,4.06
2022-07-28T20:54:39.544Z,4.06
2022-07-28T20:56:15.871Z,4.06
2022-07-28T20:57:52.194Z,4.06
2022-07-28T20:59:28.520Z,4.06
2022-07-28T21:01:04.855Z,4.06
2022-07-28T21:02:41.195Z,4.06
2022-07-28T21:04:17.518Z,4.06
2022-07-28T21:05:53.883Z,4.06
2022-07-28T21:07:30.177Z,4.06
2022-07-28T21:09:05.535Z,4.06
2022-07-28T21:10:40.874Z,4.06
2022-07-28T21:12:17.223Z,4.04
2022-07-28T21:13:53.544Z,4.04
2022-07-28T21:15:29.875Z,4.06
2022-07-28T21:17:06.203Z,4.04
2022-07-28T21:18:42.528Z,4.06
2022-07-28T21:20:17.893Z,4.06
2022-07-28T21:21:53.231Z,4.04
2022-07-28T21:23:29.565Z,4.06
2022-07-28T21:25:05.904Z,4.06
2022-07-28T21:26:42.230Z,4.06
2022-07-28T21:28:18.557Z,4.06
2022-07-28T21:31:31.222Z,4.04
2022-07-28T21:33:07.573Z,4.04
2022-07-28T21:34:43.879Z,4.04
2022-07-28T21:36:20.219Z,4.04
2022-07-28T21:37:56.549Z,4.06
2022-07-28T21:39:32.883Z,4.06
2022-07-28T21:41:09.210Z,4.06